sensor_id;sensor_type;location;lat;lon;timestamp;P1;durP1;ratioP1;P2;durP2;ratioP2
47762;SDS011;33526;42.690;23.322;2023-08-07T00:01:11;2.28;;;1.65;;
47762;SDS011;33526;42.690;23.322;2023-08-07T00:03:37;3.13;;;1.30;;
47762;SDS011;33526;42.690;23.322;2023-08-07T00:06:02;2.03;;;1.35;;
47762;SDS011;33526;42.690;23.322;2023-08-07T00:08:27;1.80;;;1.58;;
47762;SDS011;33526;42.690;23.322;2023-08-07T00:10:53;2.38;;;1.83;;
47762;SDS011;33526;42.690;23.322;2023-08-07T00:13:28;1.20;;;1.05;;
47762;SDS011;33526;42.690;23.322;2023-08-07T00:15:54;1.70;;;1.42;;
47762;SDS011;33526;42.690;23.322;2023-08-07T00:18:19;2.00;;;1.65;;
47762;SDS011;33526;42.690;23.322;2023-08-07T00:20:45;1.63;;;1.50;;
47762;SDS011;33526;42.690;23.322;2023-08-07T00:23:10;1.80;;;1.70;;
47762;SDS011;33526;42.690;23.322;2023-08-07T00:25:35;2.33;;;1.77;;
47762;SDS011;33526;42.690;23.322;2023-08-07T00:28:01;2.08;;;1.65;;
47762;SDS011;33526;42.690;23.322;2023-08-07T00:30:26;2.78;;;2.05;;
47762;SDS011;33526;42.690;23.322;2023-08-07T00:32:51;1.73;;;1.63;;
47762;SDS011;33526;42.690;23.322;2023-08-07T00:35:17;3.00;;;1.90;;
47762;SDS011;33526;42.690;23.322;2023-08-07T00:37:42;2.05;;;1.60;;
47762;SDS011;33526;42.690;23.322;2023-08-07T00:40:08;1.83;;;1.73;;
47762;SDS011;33526;42.690;23.322;2023-08-07T00:42:33;1.88;;;1.58;;
47762;SDS011;33526;42.690;23.322;2023-08-07T00:44:59;2.17;;;1.98;;
47762;SDS011;33526;42.690;23.322;2023-08-07T00:47:26;1.60;;;1.50;;
47762;SDS011;33526;42.690;23.322;2023-08-07T00:49:51;1.92;;;1.73;;
47762;SDS011;33526;42.690;23.322;2023-08-07T00:52:17;3.35;;;1.90;;
47762;SDS011;33526;42.690;23.322;2023-08-07T00:54:42;3.85;;;1.67;;
47762;SDS011;33526;42.690;23.322;2023-08-07T00:57:11;2.03;;;1.83;;
47762;SDS011;33526;42.690;23.322;2023-08-07T00:59:38;2.13;;;1.90;;
47762;SDS011;33526;42.690;23.322;2023-08-07T01:02:04;2.00;;;1.80;;
47762;SDS011;33526;42.690;23.322;2023-08-07T01:04:31;2.37;;;2.17;;
47762;SDS011;33526;42.690;23.322;2023-08-07T01:06:56;1.83;;;1.70;;
47762;SDS011;33526;42.690;23.322;2023-08-07T01:09:22;2.50;;;2.30;;
47762;SDS011;33526;42.690;23.322;2023-08-07T01:11:55;2.63;;;2.30;;
47762;SDS011;33526;42.690;23.322;2023-08-07T01:14:37;3.20;;;2.25;;
47762;SDS011;33526;42.690;23.322;2023-08-07T01:17:16;4.25;;;2.47;;
47762;SDS011;33526;42.690;23.322;2023-08-07T01:19:44;3.60;;;2.40;;
47762;SDS011;33526;42.690;23.322;2023-08-07T01:22:11;2.75;;;2.40;;
47762;SDS011;33526;42.690;23.322;2023-08-07T01:24:38;3.17;;;2.88;;
47762;SDS011;33526;42.690;23.322;2023-08-07T01:32:35;3.70;;;3.00;;
47762;SDS011;33526;42.690;23.322;2023-08-07T01:35:23;3.63;;;2.97;;
47762;SDS011;33526;42.690;23.322;2023-08-07T01:37:51;3.10;;;2.83;;
47762;SDS011;33526;42.690;23.322;2023-08-07T01:40:19;3.35;;;3.05;;
47762;SDS011;33526;42.690;23.322;2023-08-07T01:45:12;3.83;;;3.53;;
47762;SDS011;33526;42.690;23.322;2023-08-07T01:47:38;3.38;;;3.08;;
47762;SDS011;33526;42.690;23.322;2023-08-07T01:50:03;4.03;;;3.10;;
47762;SDS011;33526;42.690;23.322;2023-08-07T01:52:29;3.55;;;3.25;;
47762;SDS011;33526;42.690;23.322;2023-08-07T01:54:55;6.25;;;3.55;;
47762;SDS011;33526;42.690;23.322;2023-08-07T01:57:21;4.07;;;3.50;;
47762;SDS011;33526;42.690;23.322;2023-08-07T01:59:46;4.03;;;3.67;;
47762;SDS011;33526;42.690;23.322;2023-08-07T02:02:12;3.60;;;3.13;;
47762;SDS011;33526;42.690;23.322;2023-08-07T02:04:38;4.00;;;3.60;;
47762;SDS011;33526;42.690;23.322;2023-08-07T02:07:04;3.50;;;3.20;;
47762;SDS011;33526;42.690;23.322;2023-08-07T02:09:29;4.30;;;3.67;;
47762;SDS011;33526;42.690;23.322;2023-08-07T02:11:54;4.03;;;3.60;;
47762;SDS011;33526;42.690;23.322;2023-08-07T02:14:20;3.80;;;3.47;;
47762;SDS011;33526;42.690;23.322;2023-08-07T02:16:45;4.63;;;3.50;;
47762;SDS011;33526;42.690;23.322;2023-08-07T02:19:11;3.72;;;3.30;;
47762;SDS011;33526;42.690;23.322;2023-08-07T02:21:36;4.40;;;3.53;;
47762;SDS011;33526;42.690;23.322;2023-08-07T02:24:01;3.53;;;3.22;;
47762;SDS011;33526;42.690;23.322;2023-08-07T02:26:27;4.05;;;3.72;;
47762;SDS011;33526;42.690;23.322;2023-08-07T02:28:53;4.18;;;3.78;;
47762;SDS011;33526;42.690;23.322;2023-08-07T02:31:18;4.40;;;3.72;;
47762;SDS011;33526;42.690;23.322;2023-08-07T02:33:44;4.90;;;3.50;;
47762;SDS011;33526;42.690;23.322;2023-08-07T02:36:09;5.35;;;3.50;;
47762;SDS011;33526;42.690;23.322;2023-08-07T02:38:35;4.90;;;3.50;;
47762;SDS011;33526;42.690;23.322;2023-08-07T02:41:00;4.22;;;3.78;;
47762;SDS011;33526;42.690;23.322;2023-08-07T02:43:26;3.85;;;3.53;;
47762;SDS011;33526;42.690;23.322;2023-08-07T02:45:53;5.75;;;4.25;;
47762;SDS011;33526;42.690;23.322;2023-08-07T02:48:19;4.28;;;3.88;;
47762;SDS011;33526;42.690;23.322;2023-08-07T02:50:44;5.05;;;3.92;;
47762;SDS011;33526;42.690;23.322;2023-08-07T02:53:10;5.32;;;4.25;;
47762;SDS011;33526;42.690;23.322;2023-08-07T02:55:36;4.47;;;4.05;;
47762;SDS011;33526;42.690;23.322;2023-08-07T02:58:01;4.32;;;3.95;;
47762;SDS011;33526;42.690;23.322;2023-08-07T03:00:27;4.88;;;4.07;;
47762;SDS011;33526;42.690;23.322;2023-08-07T03:02:52;4.70;;;4.28;;
47762;SDS011;33526;42.690;23.322;2023-08-07T03:05:18;4.20;;;3.80;;
47762;SDS011;33526;42.690;23.322;2023-08-07T03:07:43;4.40;;;4.00;;
47762;SDS011;33526;42.690;23.322;2023-08-07T03:10:09;5.03;;;4.40;;
47762;SDS011;33526;42.690;23.322;2023-08-07T03:12:35;5.57;;;3.83;;
47762;SDS011;33526;42.690;23.322;2023-08-07T03:15:02;4.20;;;3.80;;
47762;SDS011;33526;42.690;23.322;2023-08-07T03:17:29;4.63;;;4.18;;
47762;SDS011;33526;42.690;23.322;2023-08-07T03:19:54;6.35;;;3.83;;
47762;SDS011;33526;42.690;23.322;2023-08-07T03:22:19;6.63;;;4.13;;
47762;SDS011;33526;42.690;23.322;2023-08-07T03:24:48;6.57;;;3.80;;
47762;SDS011;33526;42.690;23.322;2023-08-07T03:27:14;4.03;;;3.53;;
47762;SDS011;33526;42.690;23.322;2023-08-07T03:29:39;4.05;;;3.65;;
47762;SDS011;33526;42.690;23.322;2023-08-07T03:32:05;4.45;;;3.83;;
47762;SDS011;33526;42.690;23.322;2023-08-07T03:34:31;4.05;;;3.38;;
47762;SDS011;33526;42.690;23.322;2023-08-07T03:36:57;4.55;;;3.55;;
47762;SDS011;33526;42.690;23.322;2023-08-07T03:39:24;6.57;;;4.03;;
47762;SDS011;33526;42.690;23.322;2023-08-07T03:41:50;4.15;;;3.70;;
47762;SDS011;33526;42.690;23.322;2023-08-07T03:44:15;3.85;;;3.47;;
47762;SDS011;33526;42.690;23.322;2023-08-07T03:46:40;5.40;;;3.35;;
47762;SDS011;33526;42.690;23.322;2023-08-07T03:49:06;3.83;;;3.47;;
47762;SDS011;33526;42.690;23.322;2023-08-07T03:51:31;6.70;;;3.50;;
47762;SDS011;33526;42.690;23.322;2023-08-07T03:53:57;3.72;;;3.42;;
47762;SDS011;33526;42.690;23.322;2023-08-07T03:56:22;4.75;;;3.58;;
47762;SDS011;33526;42.690;23.322;2023-08-07T03:58:48;4.65;;;3.55;;
47762;SDS011;33526;42.690;23.322;2023-08-07T04:01:15;3.80;;;2.35;;
47762;SDS011;33526;42.690;23.322;2023-08-07T04:03:40;4.05;;;3.47;;
47762;SDS011;33526;42.690;23.322;2023-08-07T04:06:06;5.05;;;4.05;;
47762;SDS011;33526;42.690;23.322;2023-08-07T04:08:31;3.80;;;3.40;;
47762;SDS011;33526;42.690;23.322;2023-08-07T04:11:00;3.80;;;3.38;;
47762;SDS011;33526;42.690;23.322;2023-08-07T04:13:28;7.40;;;3.20;;
47762;SDS011;33526;42.690;23.322;2023-08-07T04:15:54;4.57;;;3.65;;
47762;SDS011;33526;42.690;23.322;2023-08-07T04:18:19;5.32;;;3.40;;
47762;SDS011;33526;42.690;23.322;2023-08-07T04:20:48;4.07;;;3.65;;
47762;SDS011;33526;42.690;23.322;2023-08-07T04:23:18;5.07;;;3.85;;
47762;SDS011;33526;42.690;23.322;2023-08-07T04:25:44;6.75;;;3.05;;
47762;SDS011;33526;42.690;23.322;2023-08-07T04:30:36;4.35;;;3.30;;
47762;SDS011;33526;42.690;23.322;2023-08-07T04:33:01;3.72;;;2.90;;
47762;SDS011;33526;42.690;23.322;2023-08-07T04:35:27;5.03;;;3.00;;
47762;SDS011;33526;42.690;23.322;2023-08-07T04:37:53;3.72;;;3.05;;
47762;SDS011;33526;42.690;23.322;2023-08-07T04:40:18;2.85;;;2.60;;
47762;SDS011;33526;42.690;23.322;2023-08-07T04:42:44;5.18;;;3.03;;
47762;SDS011;33526;42.690;23.322;2023-08-07T04:45:09;4.25;;;2.78;;
47762;SDS011;33526;42.690;23.322;2023-08-07T04:47:35;2.67;;;2.47;;
47762;SDS011;33526;42.690;23.322;2023-08-07T04:50:00;3.45;;;2.67;;
47762;SDS011;33526;42.690;23.322;2023-08-07T04:52:27;3.08;;;2.55;;
47762;SDS011;33526;42.690;23.322;2023-08-07T04:54:53;3.15;;;2.55;;
47762;SDS011;33526;42.690;23.322;2023-08-07T04:57:18;3.08;;;2.70;;
47762;SDS011;33526;42.690;23.322;2023-08-07T04:59:43;2.85;;;2.55;;
47762;SDS011;33526;42.690;23.322;2023-08-07T05:02:09;2.30;;;2.10;;
47762;SDS011;33526;42.690;23.322;2023-08-07T05:04:35;3.15;;;2.50;;
47762;SDS011;33526;42.690;23.322;2023-08-07T05:07:03;4.72;;;2.95;;
47762;SDS011;33526;42.690;23.322;2023-08-07T05:09:29;2.70;;;2.22;;
47762;SDS011;33526;42.690;23.322;2023-08-07T05:11:54;7.47;;;2.85;;
47762;SDS011;33526;42.690;23.322;2023-08-07T05:14:21;3.45;;;2.45;;
47762;SDS011;33526;42.690;23.322;2023-08-07T05:16:48;4.82;;;2.92;;
47762;SDS011;33526;42.690;23.322;2023-08-07T05:19:14;3.63;;;3.03;;
47762;SDS011;33526;42.690;23.322;2023-08-07T05:21:39;6.35;;;2.30;;
47762;SDS011;33526;42.690;23.322;2023-08-07T05:24:05;2.95;;;2.63;;
47762;SDS011;33526;42.690;23.322;2023-08-07T05:26:30;3.00;;;2.70;;
47762;SDS011;33526;42.690;23.322;2023-08-07T05:28:56;4.53;;;3.05;;
47762;SDS011;33526;42.690;23.322;2023-08-07T05:31:23;6.72;;;3.08;;
47762;SDS011;33526;42.690;23.322;2023-08-07T05:33:49;5.22;;;4.00;;
47762;SDS011;33526;42.690;23.322;2023-08-07T05:36:15;3.55;;;2.80;;
47762;SDS011;33526;42.690;23.322;2023-08-07T05:38:40;3.90;;;2.10;;
47762;SDS011;33526;42.690;23.322;2023-08-07T05:41:08;7.18;;;3.35;;
47762;SDS011;33526;42.690;23.322;2023-08-07T05:43:34;2.13;;;1.83;;
47762;SDS011;33526;42.690;23.322;2023-08-07T05:45:59;3.85;;;2.30;;
47762;SDS011;33526;42.690;23.322;2023-08-07T05:48:25;3.88;;;2.15;;
47762;SDS011;33526;42.690;23.322;2023-08-07T05:50:51;2.65;;;2.40;;
47762;SDS011;33526;42.690;23.322;2023-08-07T05:53:17;4.63;;;2.70;;
47762;SDS011;33526;42.690;23.322;2023-08-07T05:55:42;4.78;;;3.05;;
47762;SDS011;33526;42.690;23.322;2023-08-07T05:58:08;2.15;;;1.90;;
47762;SDS011;33526;42.690;23.322;2023-08-07T06:00:34;3.78;;;2.00;;
47762;SDS011;33526;42.690;23.322;2023-08-07T06:03:00;4.13;;;2.30;;
47762;SDS011;33526;42.690;23.322;2023-08-07T06:05:25;3.88;;;2.70;;
47762;SDS011;33526;42.690;23.322;2023-08-07T06:07:51;3.28;;;2.80;;
47762;SDS011;33526;42.690;23.322;2023-08-07T06:10:16;2.40;;;2.20;;
47762;SDS011;33526;42.690;23.322;2023-08-07T06:12:43;4.15;;;2.28;;
47762;SDS011;33526;42.690;23.322;2023-08-07T06:15:11;6.70;;;4.72;;
47762;SDS011;33526;42.690;23.322;2023-08-07T06:17:38;5.25;;;2.95;;
47762;SDS011;33526;42.690;23.322;2023-08-07T06:20:05;3.80;;;2.72;;
47762;SDS011;33526;42.690;23.322;2023-08-07T06:22:34;3.15;;;2.63;;
47762;SDS011;33526;42.690;23.322;2023-08-07T06:25:00;7.07;;;4.90;;
47762;SDS011;33526;42.690;23.322;2023-08-07T06:27:25;3.42;;;2.60;;
47762;SDS011;33526;42.690;23.322;2023-08-07T06:29:51;3.97;;;2.55;;
47762;SDS011;33526;42.690;23.322;2023-08-07T06:32:16;2.53;;;2.33;;
47762;SDS011;33526;42.690;23.322;2023-08-07T06:34:43;3.83;;;2.38;;
47762;SDS011;33526;42.690;23.322;2023-08-07T06:37:09;3.30;;;2.53;;
47762;SDS011;33526;42.690;23.322;2023-08-07T06:39:35;3.38;;;2.78;;
47762;SDS011;33526;42.690;23.322;2023-08-07T06:42:01;2.50;;;2.17;;
47762;SDS011;33526;42.690;23.322;2023-08-07T06:44:27;3.15;;;2.53;;
47762;SDS011;33526;42.690;23.322;2023-08-07T06:46:53;2.55;;;1.77;;
47762;SDS011;33526;42.690;23.322;2023-08-07T06:49:19;1.35;;;1.25;;
47762;SDS011;33526;42.690;23.322;2023-08-07T06:51:45;5.30;;;3.05;;
47762;SDS011;33526;42.690;23.322;2023-08-07T06:54:10;1.77;;;1.27;;
47762;SDS011;33526;42.690;23.322;2023-08-07T06:56:37;2.70;;;1.65;;
47762;SDS011;33526;42.690;23.322;2023-08-07T06:59:07;2.60;;;1.00;;
47762;SDS011;33526;42.690;23.322;2023-08-07T07:01:32;1.67;;;1.30;;
47762;SDS011;33526;42.690;23.322;2023-08-07T07:03:58;1.85;;;1.20;;
47762;SDS011;33526;42.690;23.322;2023-08-07T07:06:24;1.43;;;1.10;;
47762;SDS011;33526;42.690;23.322;2023-08-07T07:08:51;3.42;;;1.70;;
47762;SDS011;33526;42.690;23.322;2023-08-07T07:11:19;1.65;;;1.55;;
47762;SDS011;33526;42.690;23.322;2023-08-07T07:13:45;1.92;;;1.33;;
47762;SDS011;33526;42.690;23.322;2023-08-07T07:16:11;1.65;;;1.50;;
47762;SDS011;33526;42.690;23.322;2023-08-07T07:18:38;1.90;;;1.42;;
47762;SDS011;33526;42.690;23.322;2023-08-07T07:21:04;1.70;;;1.52;;
47762;SDS011;33526;42.690;23.322;2023-08-07T07:23:31;3.97;;;1.65;;
47762;SDS011;33526;42.690;23.322;2023-08-07T07:25:57;2.90;;;2.30;;
47762;SDS011;33526;42.690;23.322;2023-08-07T07:28:23;1.27;;;1.17;;
47762;SDS011;33526;42.690;23.322;2023-08-07T07:30:49;1.40;;;1.30;;
47762;SDS011;33526;42.690;23.322;2023-08-07T07:33:15;1.90;;;1.45;;
47762;SDS011;33526;42.690;23.322;2023-08-07T07:35:41;2.38;;;1.90;;
47762;SDS011;33526;42.690;23.322;2023-08-07T07:38:07;2.15;;;1.70;;
47762;SDS011;33526;42.690;23.322;2023-08-07T07:40:33;4.85;;;2.10;;
47762;SDS011;33526;42.690;23.322;2023-08-07T07:42:59;2.08;;;1.50;;
47762;SDS011;33526;42.690;23.322;2023-08-07T07:45:25;1.65;;;1.40;;
47762;SDS011;33526;42.690;23.322;2023-08-07T07:47:51;1.75;;;1.40;;
47762;SDS011;33526;42.690;23.322;2023-08-07T07:50:19;1.77;;;1.40;;
47762;SDS011;33526;42.690;23.322;2023-08-07T07:52:45;2.25;;;1.70;;
47762;SDS011;33526;42.690;23.322;2023-08-07T07:55:10;3.22;;;1.40;;
47762;SDS011;33526;42.690;23.322;2023-08-07T07:57:37;2.65;;;2.30;;
47762;SDS011;33526;42.690;23.322;2023-08-07T08:00:03;2.03;;;1.60;;
47762;SDS011;33526;42.690;23.322;2023-08-07T08:02:35;5.88;;;1.77;;
47762;SDS011;33526;42.690;23.322;2023-08-07T08:05:01;3.15;;;1.77;;
47762;SDS011;33526;42.690;23.322;2023-08-07T08:07:28;2.75;;;2.00;;
47762;SDS011;33526;42.690;23.322;2023-08-07T08:09:57;2.53;;;1.48;;
47762;SDS011;33526;42.690;23.322;2023-08-07T08:12:22;2.03;;;1.83;;
47762;SDS011;33526;42.690;23.322;2023-08-07T08:14:48;5.35;;;1.85;;
47762;SDS011;33526;42.690;23.322;2023-08-07T08:17:14;2.22;;;1.30;;
47762;SDS011;33526;42.690;23.322;2023-08-07T08:19:45;1.77;;;1.27;;
47762;SDS011;33526;42.690;23.322;2023-08-07T08:22:12;1.52;;;1.33;;
47762;SDS011;33526;42.690;23.322;2023-08-07T08:24:37;1.70;;;1.52;;
47762;SDS011;33526;42.690;23.322;2023-08-07T08:27:04;2.70;;;1.45;;
47762;SDS011;33526;42.690;23.322;2023-08-07T08:29:30;2.17;;;1.38;;
47762;SDS011;33526;42.690;23.322;2023-08-07T08:31:56;1.70;;;1.10;;
47762;SDS011;33526;42.690;23.322;2023-08-07T08:34:23;3.05;;;1.10;;
47762;SDS011;33526;42.690;23.322;2023-08-07T08:36:55;1.50;;;1.20;;
47762;SDS011;33526;42.690;23.322;2023-08-07T08:39:25;2.33;;;1.30;;
47762;SDS011;33526;42.690;23.322;2023-08-07T08:41:54;1.35;;;1.10;;
47762;SDS011;33526;42.690;23.322;2023-08-07T08:44:19;1.92;;;1.58;;
47762;SDS011;33526;42.690;23.322;2023-08-07T08:46:48;4.10;;;2.90;;
47762;SDS011;33526;42.690;23.322;2023-08-07T08:49:19;2.53;;;1.77;;
47762;SDS011;33526;42.690;23.322;2023-08-07T08:51:53;5.30;;;1.45;;
47762;SDS011;33526;42.690;23.322;2023-08-07T08:54:18;1.20;;;1.10;;
47762;SDS011;33526;42.690;23.322;2023-08-07T08:56:45;1.58;;;1.45;;
47762;SDS011;33526;42.690;23.322;2023-08-07T08:59:11;3.13;;;1.63;;
47762;SDS011;33526;42.690;23.322;2023-08-07T09:01:36;1.73;;;1.27;;
47762;SDS011;33526;42.690;23.322;2023-08-07T09:04:03;5.65;;;2.50;;
47762;SDS011;33526;42.690;23.322;2023-08-07T09:06:30;2.08;;;1.23;;
47762;SDS011;33526;42.690;23.322;2023-08-07T09:08:58;2.10;;;1.42;;
47762;SDS011;33526;42.690;23.322;2023-08-07T09:11:25;3.08;;;1.80;;
47762;SDS011;33526;42.690;23.322;2023-08-07T09:13:52;6.03;;;1.55;;
47762;SDS011;33526;42.690;23.322;2023-08-07T09:16:21;3.35;;;1.50;;
47762;SDS011;33526;42.690;23.322;2023-08-07T09:18:50;1.73;;;1.25;;
47762;SDS011;33526;42.690;23.322;2023-08-07T09:21:16;3.97;;;1.50;;
47762;SDS011;33526;42.690;23.322;2023-08-07T09:23:42;3.23;;;2.00;;
47762;SDS011;33526;42.690;23.322;2023-08-07T09:26:08;3.28;;;1.40;;
47762;SDS011;33526;42.690;23.322;2023-08-07T09:28:36;1.83;;;1.48;;
47762;SDS011;33526;42.690;23.322;2023-08-07T09:31:07;3.17;;;1.50;;
47762;SDS011;33526;42.690;23.322;2023-08-07T09:33:40;3.25;;;1.50;;
47762;SDS011;33526;42.690;23.322;2023-08-07T09:36:06;4.32;;;1.25;;
47762;SDS011;33526;42.690;23.322;2023-08-07T09:38:34;3.95;;;1.83;;
47762;SDS011;33526;42.690;23.322;2023-08-07T09:41:02;3.72;;;1.48;;
47762;SDS011;33526;42.690;23.322;2023-08-07T09:43:29;4.28;;;1.40;;
47762;SDS011;33526;42.690;23.322;2023-08-07T09:46:07;1.63;;;1.30;;
47762;SDS011;33526;42.690;23.322;2023-08-07T09:48:38;3.10;;;1.88;;
47762;SDS011;33526;42.690;23.322;2023-08-07T09:51:07;2.00;;;1.63;;
47762;SDS011;33526;42.690;23.322;2023-08-07T09:53:33;2.40;;;1.70;;
47762;SDS011;33526;42.690;23.322;2023-08-07T09:56:00;2.30;;;1.83;;
47762;SDS011;33526;42.690;23.322;2023-08-07T09:58:28;1.73;;;1.60;;
47762;SDS011;33526;42.690;23.322;2023-08-07T10:00:54;2.67;;;1.20;;
47762;SDS011;33526;42.690;23.322;2023-08-07T10:03:25;1.50;;;1.40;;
47762;SDS011;33526;42.690;23.322;2023-08-07T10:05:51;2.15;;;1.80;;
47762;SDS011;33526;42.690;23.322;2023-08-07T10:08:17;2.47;;;1.50;;
47762;SDS011;33526;42.690;23.322;2023-08-07T10:10:43;5.07;;;2.35;;
47762;SDS011;33526;42.690;23.322;2023-08-07T10:13:09;4.43;;;2.10;;
47762;SDS011;33526;42.690;23.322;2023-08-07T10:15:38;3.10;;;2.10;;
47762;SDS011;33526;42.690;23.322;2023-08-07T10:18:10;6.57;;;2.90;;
47762;SDS011;33526;42.690;23.322;2023-08-07T10:20:35;1.60;;;1.30;;
47762;SDS011;33526;42.690;23.322;2023-08-07T10:23:10;1.70;;;1.60;;
47762;SDS011;33526;42.690;23.322;2023-08-07T10:26:08;2.63;;;1.67;;
47762;SDS011;33526;42.690;23.322;2023-08-07T10:28:49;1.70;;;1.27;;
47762;SDS011;33526;42.690;23.322;2023-08-07T10:31:18;2.97;;;1.98;;
47762;SDS011;33526;42.690;23.322;2023-08-07T10:33:47;2.42;;;1.45;;
47762;SDS011;33526;42.690;23.322;2023-08-07T10:36:15;2.25;;;1.55;;
47762;SDS011;33526;42.690;23.322;2023-08-07T10:38:43;1.20;;;1.10;;
47762;SDS011;33526;42.690;23.322;2023-08-07T10:41:10;2.97;;;1.40;;
47762;SDS011;33526;42.690;23.322;2023-08-07T10:43:39;7.30;;;2.20;;
47762;SDS011;33526;42.690;23.322;2023-08-07T10:51:05;1.33;;;1.23;;
47762;SDS011;33526;42.690;23.322;2023-08-07T10:53:38;1.95;;;1.45;;
47762;SDS011;33526;42.690;23.322;2023-08-07T10:56:15;1.65;;;1.13;;
47762;SDS011;33526;42.690;23.322;2023-08-07T10:58:58;2.30;;;1.20;;
47762;SDS011;33526;42.690;23.322;2023-08-07T11:01:41;5.70;;;1.50;;
47762;SDS011;33526;42.690;23.322;2023-08-07T11:04:14;3.60;;;1.50;;
47762;SDS011;33526;42.690;23.322;2023-08-07T11:06:41;1.63;;;1.52;;
47762;SDS011;33526;42.690;23.322;2023-08-07T11:09:10;2.70;;;1.90;;
47762;SDS011;33526;42.690;23.322;2023-08-07T11:11:42;3.60;;;1.80;;
47762;SDS011;33526;42.690;23.322;2023-08-07T11:14:11;1.40;;;1.30;;
47762;SDS011;33526;42.690;23.322;2023-08-07T11:16:39;2.03;;;1.35;;
47762;SDS011;33526;42.690;23.322;2023-08-07T11:19:04;3.38;;;1.50;;
47762;SDS011;33526;42.690;23.322;2023-08-07T11:21:31;3.25;;;1.30;;
47762;SDS011;33526;42.690;23.322;2023-08-07T11:23:59;2.10;;;1.48;;
47762;SDS011;33526;42.690;23.322;2023-08-07T11:26:25;1.42;;;1.10;;
47762;SDS011;33526;42.690;23.322;2023-08-07T11:28:55;2.30;;;1.50;;
47762;SDS011;33526;42.690;23.322;2023-08-07T11:31:30;6.05;;;1.67;;
47762;SDS011;33526;42.690;23.322;2023-08-07T11:33:56;1.90;;;1.67;;
47762;SDS011;33526;42.690;23.322;2023-08-07T11:36:23;2.70;;;1.50;;
47762;SDS011;33526;42.690;23.322;2023-08-07T11:38:50;3.72;;;1.88;;
47762;SDS011;33526;42.690;23.322;2023-08-07T11:41:16;3.78;;;1.52;;
47762;SDS011;33526;42.690;23.322;2023-08-07T11:43:43;3.85;;;1.85;;
47762;SDS011;33526;42.690;23.322;2023-08-07T11:46:11;6.63;;;1.75;;
47762;SDS011;33526;42.690;23.322;2023-08-07T11:48:41;1.75;;;1.60;;
47762;SDS011;33526;42.690;23.322;2023-08-07T11:51:08;2.35;;;1.55;;
47762;SDS011;33526;42.690;23.322;2023-08-07T11:53:35;1.83;;;1.45;;
47762;SDS011;33526;42.690;23.322;2023-08-07T11:56:09;4.35;;;1.50;;
47762;SDS011;33526;42.690;23.322;2023-08-07T11:58:37;1.85;;;1.42;;
47762;SDS011;33526;42.690;23.322;2023-08-07T12:01:25;2.50;;;1.30;;
47762;SDS011;33526;42.690;23.322;2023-08-07T12:04:08;1.55;;;1.35;;
47762;SDS011;33526;42.690;23.322;2023-08-07T12:06:34;3.10;;;1.50;;
47762;SDS011;33526;42.690;23.322;2023-08-07T12:09:11;4.70;;;1.30;;
47762;SDS011;33526;42.690;23.322;2023-08-07T12:11:39;2.15;;;1.50;;
47762;SDS011;33526;42.690;23.322;2023-08-07T12:14:06;2.50;;;1.70;;
47762;SDS011;33526;42.690;23.322;2023-08-07T12:16:34;1.77;;;1.30;;
47762;SDS011;33526;42.690;23.322;2023-08-07T12:19:03;3.40;;;2.08;;
47762;SDS011;33526;42.690;23.322;2023-08-07T12:21:30;3.33;;;1.67;;
47762;SDS011;33526;42.690;23.322;2023-08-07T12:24:01;4.32;;;1.38;;
47762;SDS011;33526;42.690;23.322;2023-08-07T12:26:28;1.43;;;1.17;;
47762;SDS011;33526;42.690;23.322;2023-08-07T12:28:54;4.50;;;1.17;;
47762;SDS011;33526;42.690;23.322;2023-08-07T12:31:26;1.77;;;1.60;;
47762;SDS011;33526;42.690;23.322;2023-08-07T12:34:03;5.65;;;2.08;;
47762;SDS011;33526;42.690;23.322;2023-08-07T12:36:28;3.35;;;1.77;;
47762;SDS011;33526;42.690;23.322;2023-08-07T12:38:54;3.85;;;1.80;;
47762;SDS011;33526;42.690;23.322;2023-08-07T12:41:19;4.50;;;1.43;;
47762;SDS011;33526;42.690;23.322;2023-08-07T12:43:46;7.45;;;1.60;;
47762;SDS011;33526;42.690;23.322;2023-08-07T12:46:12;1.55;;;1.45;;
47762;SDS011;33526;42.690;23.322;2023-08-07T12:51:10;3.05;;;1.60;;
47762;SDS011;33526;42.690;23.322;2023-08-07T12:53:37;5.25;;;1.48;;
47762;SDS011;33526;42.690;23.322;2023-08-07T12:56:05;3.70;;;2.20;;
47762;SDS011;33526;42.690;23.322;2023-08-07T12:58:31;4.60;;;1.58;;
47762;SDS011;33526;42.690;23.322;2023-08-07T13:00:56;1.33;;;1.20;;
47762;SDS011;33526;42.690;23.322;2023-08-07T13:03:22;1.70;;;1.42;;
47762;SDS011;33526;42.690;23.322;2023-08-07T13:05:48;2.93;;;1.60;;
47762;SDS011;33526;42.690;23.322;2023-08-07T13:08:13;2.53;;;1.80;;
47762;SDS011;33526;42.690;23.322;2023-08-07T13:10:39;5.35;;;2.20;;
47762;SDS011;33526;42.690;23.322;2023-08-07T13:13:04;5.27;;;1.80;;
47762;SDS011;33526;42.690;23.322;2023-08-07T13:15:30;2.65;;;1.75;;
47762;SDS011;33526;42.690;23.322;2023-08-07T13:17:56;2.17;;;1.60;;
47762;SDS011;33526;42.690;23.322;2023-08-07T13:20:21;2.38;;;1.90;;
47762;SDS011;33526;42.690;23.322;2023-08-07T13:22:49;2.90;;;1.50;;
47762;SDS011;33526;42.690;23.322;2023-08-07T13:25:27;2.58;;;1.30;;
47762;SDS011;33526;42.690;23.322;2023-08-07T13:27:57;3.78;;;1.40;;
47762;SDS011;33526;42.690;23.322;2023-08-07T13:30:27;3.83;;;1.80;;
47762;SDS011;33526;42.690;23.322;2023-08-07T13:32:59;1.58;;;1.45;;
47762;SDS011;33526;42.690;23.322;2023-08-07T13:35:27;5.22;;;1.58;;
47762;SDS011;33526;42.690;23.322;2023-08-07T13:37:52;4.78;;;1.75;;
47762;SDS011;33526;42.690;23.322;2023-08-07T13:40:18;1.30;;;1.20;;
47762;SDS011;33526;42.690;23.322;2023-08-07T13:42:45;1.35;;;1.23;;
47762;SDS011;33526;42.690;23.322;2023-08-07T13:45:16;2.83;;;1.48;;
47762;SDS011;33526;42.690;23.322;2023-08-07T13:47:51;2.72;;;1.35;;
47762;SDS011;33526;42.690;23.322;2023-08-07T13:51:06;2.97;;;1.50;;
47762;SDS011;33526;42.690;23.322;2023-08-07T13:54:01;2.28;;;1.65;;
47762;SDS011;33526;42.690;23.322;2023-08-07T13:56:34;1.60;;;1.30;;
47762;SDS011;33526;42.690;23.322;2023-08-07T13:59:01;2.13;;;1.33;;
47762;SDS011;33526;42.690;23.322;2023-08-07T14:01:31;1.60;;;1.50;;
47762;SDS011;33526;42.690;23.322;2023-08-07T14:04:02;3.33;;;1.75;;
47762;SDS011;33526;42.690;23.322;2023-08-07T14:06:28;1.85;;;1.70;;
47762;SDS011;33526;42.690;23.322;2023-08-07T14:08:54;1.92;;;1.42;;
47762;SDS011;33526;42.690;23.322;2023-08-07T14:11:22;3.17;;;1.77;;
47762;SDS011;33526;42.690;23.322;2023-08-07T14:13:56;3.22;;;1.50;;
47762;SDS011;33526;42.690;23.322;2023-08-07T14:16:23;3.45;;;1.70;;
47762;SDS011;33526;42.690;23.322;2023-08-07T14:18:49;2.45;;;1.35;;
47762;SDS011;33526;42.690;23.322;2023-08-07T14:21:15;3.90;;;1.90;;
47762;SDS011;33526;42.690;23.322;2023-08-07T14:23:41;2.05;;;1.60;;
47762;SDS011;33526;42.690;23.322;2023-08-07T14:26:07;4.37;;;1.77;;
47762;SDS011;33526;42.690;23.322;2023-08-07T14:28:33;2.10;;;1.33;;
47762;SDS011;33526;42.690;23.322;2023-08-07T14:30:58;2.28;;;1.60;;
47762;SDS011;33526;42.690;23.322;2023-08-07T14:33:24;4.38;;;1.58;;
47762;SDS011;33526;42.690;23.322;2023-08-07T14:35:51;2.30;;;1.38;;
47762;SDS011;33526;42.690;23.322;2023-08-07T14:38:17;1.85;;;1.63;;
47762;SDS011;33526;42.690;23.322;2023-08-07T14:40:43;5.55;;;1.67;;
47762;SDS011;33526;42.690;23.322;2023-08-07T14:43:09;3.53;;;1.60;;
47762;SDS011;33526;42.690;23.322;2023-08-07T14:45:37;2.55;;;1.40;;
47762;SDS011;33526;42.690;23.322;2023-08-07T14:48:13;1.80;;;1.48;;
47762;SDS011;33526;42.690;23.322;2023-08-07T14:50:45;3.92;;;1.80;;
47762;SDS011;33526;42.690;23.322;2023-08-07T14:53:26;4.90;;;1.83;;